createdAt,value
2023-01-11T00:01:55.878Z,4.60
2023-01-11T00:04:28.252Z,4.60
2023-01-11T00:06:55.063Z,4.60
2023-01-11T00:09:21.835Z,4.60
2023-01-11T00:11:48.502Z,4.60
2023-01-11T00:14:15.755Z,4.60
2023-01-11T00:16:42.432Z,4.60
2023-01-11T00:19:09.139Z,4.60
2023-01-11T00:21:35.782Z,4.60
2023-01-11T00:24:02.430Z,4.70
2023-01-11T00:26:29.102Z,4.70
2023-01-11T00:28:55.756Z,4.70
2023-01-11T00:31:22.525Z,4.70
2023-01-11T00:33:49.237Z,4.80
2023-01-11T00:36:15.830Z,4.80
2023-01-11T00:38:51.266Z,4.80
2023-01-11T00:41:36.713Z,4.80
2023-01-11T00:44:22.592Z,4.80
2023-01-11T00:47:08.030Z,4.80
2023-01-11T00:49:34.839Z,4.80
2023-01-11T00:52:01.873Z,4.80
2023-01-11T00:54:28.483Z,4.80
2023-01-11T00:56:55.226Z,4.70
2023-01-11T00:59:21.897Z,4.70
2023-01-11T01:01:48.563Z,4.80
2023-01-11T01:04:15.216Z,4.70
2023-01-11T01:06:41.957Z,4.70
2023-01-11T01:09:08.616Z,4.70
2023-01-11T01:11:35.276Z,4.80
2023-01-11T01:14:20.643Z,5.80
2023-01-11T01:16:47.927Z,5.10
2023-01-11T01:19:14.735Z,4.70
2023-01-11T01:21:41.460Z,4.70
2023-01-11T01:24:08.189Z,4.70
2023-01-11T01:26:34.841Z,4.60
2023-01-11T01:29:01.625Z,4.60
2023-01-11T01:31:28.496Z,4.60
2023-01-11T01:33:56.072Z,4.60
2023-01-11T01:36:22.664Z,4.50
2023-01-11T01:38:49.400Z,4.50
2023-01-11T01:41:16.030Z,4.60
2023-01-11T01:43:53.579Z,4.60
2023-01-11T01:46:21.370Z,4.60
2023-01-11T01:48:52.656Z,4.60
2023-01-11T01:51:22.579Z,4.70
2023-01-11T01:53:51.149Z,4.80
2023-01-11T01:56:25.728Z,4.80
2023-01-11T01:58:54.468Z,4.80
2023-01-11T02:01:39.925Z,4.90
2023-01-11T02:04:14.232Z,4.80
2023-01-11T02:06:41.688Z,4.90
2023-01-11T02:09:14.309Z,3.10
2023-01-11T02:11:43.519Z,4.90
2023-01-11T02:14:12.454Z,5.00
2023-01-11T02:16:39.074Z,5.00
2023-01-11T02:19:08.382Z,5.00
2023-01-11T02:21:43.846Z,5.00
2023-01-11T02:24:29.201Z,5.00
2023-01-11T02:27:19.149Z,5.10
2023-01-11T02:29:51.524Z,5.10
2023-01-11T02:32:21.212Z,5.10
2023-01-11T02:34:56.372Z,5.10
2023-01-11T02:37:37.390Z,5.20
2023-01-11T02:40:07.445Z,5.20
2023-01-11T02:42:57.049Z,5.10
2023-01-11T02:45:23.607Z,5.10
2023-01-11T02:48:06.770Z,6.80
2023-01-11T02:50:43.999Z,5.20
2023-01-11T02:53:15.890Z,5.20
2023-01-11T02:55:46.014Z,5.30
2023-01-11T02:58:12.843Z,6.20
2023-01-11T03:00:40.379Z,5.30
2023-01-11T03:03:08.795Z,5.40
2023-01-11T03:05:41.928Z,5.40
2023-01-11T03:08:21.635Z,5.40
2023-01-11T03:11:06.327Z,5.50
2023-01-11T03:14:11.724Z,5.50
2023-01-11T03:16:43.644Z,5.50
2023-01-11T03:19:23.931Z,5.60
2023-01-11T03:22:01.795Z,5.60
2023-01-11T03:24:34.769Z,5.60
2023-01-11T03:27:04.372Z,5.60
2023-01-11T03:29:30.909Z,5.70
2023-01-11T03:32:20.733Z,5.80
2023-01-11T03:34:59.508Z,5.70
2023-01-11T03:37:29.279Z,5.70
2023-01-11T03:40:00.527Z,5.80
2023-01-11T03:42:27.545Z,5.80
2023-01-11T03:44:55.495Z,5.80
2023-01-11T03:47:23.812Z,5.80
2023-01-11T03:50:18.659Z,5.70
2023-01-11T03:52:45.674Z,5.80
2023-01-11T03:55:15.065Z,5.80
2023-01-11T03:57:43.671Z,5.80
2023-01-11T04:00:10.856Z,6.50
2023-01-11T04:02:41.272Z,5.70
2023-01-11T04:05:09.182Z,5.80
2023-01-11T04:07:35.787Z,5.80
2023-01-11T04:10:02.508Z,5.90
2023-01-11T04:12:29.072Z,7.10
2023-01-11T04:14:55.726Z,5.90
2023-01-11T04:17:22.342Z,5.90
2023-01-11T04:19:48.963Z,6.00
2023-01-11T04:22:15.589Z,6.00
2023-01-11T04:24:42.311Z,6.00
2023-01-11T04:27:08.952Z,6.00
2023-01-11T04:29:35.536Z,6.00
2023-01-11T04:32:02.167Z,6.00
2023-01-11T04:34:28.819Z,6.00
2023-01-11T04:36:55.559Z,6.00
2023-01-11T04:39:22.197Z,6.60
2023-01-11T04:42:07.564Z,5.90
2023-01-11T04:44:34.174Z,6.00
2023-01-11T04:47:00.856Z,5.90
2023-01-11T04:49:28.100Z,5.90
2023-01-11T04:51:54.745Z,5.90
2023-01-11T04:54:21.931Z,5.90
2023-01-11T04:56:48.486Z,5.90
2023-01-11T04:59:15.121Z,5.90
2023-01-11T05:01:41.782Z,5.80
2023-01-11T05:04:08.476Z,5.80
2023-01-11T05:06:35.119Z,5.80
2023-01-11T05:09:01.775Z,5.70
2023-01-11T05:11:28.335Z,5.70
2023-01-11T05:13:54.901Z,5.70
2023-01-11T05:16:23.859Z,5.70
2023-01-11T05:18:52.079Z,5.70
2023-01-11T05:21:24.038Z,5.70
2023-01-11T05:26:53.236Z,5.70
2023-01-11T05:29:21.214Z,5.80
2023-01-11T05:31:48.189Z,5.80
2023-01-11T05:34:15.631Z,5.80
2023-01-11T05:36:42.585Z,5.90
2023-01-11T05:39:09.425Z,5.90
2023-01-11T05:41:36.078Z,8.30
2023-01-11T05:44:21.481Z,6.00
2023-01-11T05:46:48.054Z,6.00
2023-01-11T05:49:14.687Z,6.10
2023-01-11T05:51:41.907Z,6.10
2023-01-11T05:54:10.599Z,6.20
2023-01-11T05:56:37.215Z,6.20
2023-01-11T05:59:04.102Z,6.20
2023-01-11T06:01:31.240Z,6.30
2023-01-11T06:03:57.799Z,8.50
2023-01-11T06:06:24.630Z,6.20
2023-01-11T06:08:51.300Z,6.30
2023-01-11T06:11:17.953Z,6.20
2023-01-11T06:13:44.523Z,6.30
2023-01-11T06:16:12.727Z,6.30
2023-01-11T06:18:40.866Z,6.20
2023-01-11T06:21:07.911Z,6.30
2023-01-11T06:23:35.326Z,6.20
2023-01-11T06:26:02.905Z,6.20
2023-01-11T06:28:29.462Z,6.20
2023-01-11T06:30:56.638Z,6.20
2023-01-11T06:33:24.206Z,6.30
2023-01-11T06:35:51.181Z,6.30
2023-01-11T06:38:18.739Z,6.20
2023-01-11T06:40:51.301Z,6.20
2023-01-11T06:43:18.033Z,6.20
2023-01-11T06:45:44.740Z,6.20
2023-01-11T06:48:11.319Z,6.20
2023-01-11T06:50:37.919Z,6.20
2023-01-11T06:53:04.551Z,6.20
2023-01-11T06:55:31.840Z,6.20
2023-01-11T06:57:58.429Z,6.10
2023-01-11T07:00:25.159Z,6.20
2023-01-11T07:02:51.858Z,6.10
2023-01-11T07:05:19.448Z,8.30
2023-01-11T07:07:46.311Z,6.20
2023-01-11T07:10:14.081Z,6.10
2023-01-11T07:12:40.869Z,6.20
2023-01-11T07:15:09.073Z,6.20
2023-01-11T07:17:35.830Z,6.20
2023-01-11T07:20:02.570Z,6.30
2023-01-11T07:22:29.217Z,6.20
2023-01-11T07:24:55.782Z,6.30
2023-01-11T07:27:22.432Z,6.40
2023-01-11T07:29:49.071Z,6.40
2023-01-11T07:32:15.679Z,7.80
2023-01-11T07:34:42.316Z,6.50
2023-01-11T07:37:09.607Z,9.50
2023-01-11T07:39:55.741Z,6.60
2023-01-11T07:42:41.241Z,6.60
2023-01-11T07:45:08.099Z,8.30
2023-01-11T07:47:34.715Z,6.70
2023-01-11T07:50:01.316Z,6.70
2023-01-11T07:52:27.940Z,7.30
2023-01-11T07:54:54.511Z,6.80
2023-01-11T07:57:21.136Z,6.80
2023-01-11T07:59:47.719Z,6.80
2023-01-11T08:02:14.345Z,6.80
2023-01-11T08:04:40.932Z,6.80
2023-01-11T08:07:07.523Z,6.90
2023-01-11T08:09:34.174Z,6.80
2023-01-11T08:12:19.551Z,7.10
2023-01-11T08:14:46.232Z,6.90
2023-01-11T08:17:16.057Z,6.90
2023-01-11T08:19:43.100Z,6.90
2023-01-11T08:22:10.104Z,7.00
2023-01-11T08:24:36.800Z,7.00
2023-01-11T08:27:04.388Z,7.00
2023-01-11T08:29:31.302Z,8.00
2023-01-11T08:31:59.325Z,7.10
2023-01-11T08:34:27.594Z,9.30
2023-01-11T08:36:56.576Z,7.20
2023-01-11T08:39:23.901Z,7.20
2023-01-11T08:41:50.479Z,7.20
2023-01-11T08:44:29.171Z,7.20
2023-01-11T08:46:59.629Z,7.20
2023-01-11T08:49:26.251Z,8.90
2023-01-11T08:51:52.842Z,7.30
2023-01-11T08:54:19.509Z,10.10
2023-01-11T08:56:46.132Z,9.30
2023-01-11T08:59:12.824Z,7.40
2023-01-11T09:01:39.608Z,7.50
2023-01-11T09:04:19.232Z,7.50
2023-01-11T09:06:49.853Z,7.40
2023-01-11T09:09:16.953Z,7.50
2023-01-11T09:11:57.029Z,7.50
2023-01-11T09:14:24.930Z,7.50
2023-01-11T09:16:52.045Z,7.60
2023-01-11T09:19:18.687Z,7.60
2023-01-11T09:21:48.224Z,7.60
2023-01-11T09:24:14.854Z,7.60
2023-01-11T09:26:43.378Z,7.60
2023-01-11T09:29:10.685Z,9.00
2023-01-11T09:31:37.403Z,7.60
2023-01-11T09:34:04.897Z,9.20
2023-01-11T09:36:33.008Z,7.70
2023-01-11T09:39:01.791Z,7.70
2023-01-11T09:41:37.439Z,7.70
2023-01-11T09:44:16.434Z,7.70
2023-01-11T09:46:46.243Z,7.70
2023-01-11T09:49:28.047Z,7.70
2023-01-11T09:52:14.901Z,7.80
2023-01-11T09:54:43.223Z,7.80
2023-01-11T09:57:23.762Z,7.90
2023-01-11T09:59:56.963Z,7.90
2023-01-11T10:02:37.378Z,8.00
2023-01-11T10:05:23.600Z,8.00
2023-01-11T10:18:33.476Z,8.80
2023-01-11T10:18:38.764Z,8.10
2023-01-11T10:19:57.488Z,8.20
2023-01-11T10:22:27.896Z,8.20
2023-01-11T10:25:11.604Z,8.20
2023-01-11T10:27:46.711Z,8.20
2023-01-11T10:30:49.471Z,8.20
2023-01-11T10:33:49.702Z,9.70
2023-01-11T10:36:40.863Z,8.30
2023-01-11T10:39:35.832Z,8.20
2023-01-11T10:42:10.388Z,8.20
2023-01-11T10:44:47.464Z,8.30
2023-01-11T10:47:17.347Z,8.30
2023-01-11T10:49:52.235Z,8.30
2023-01-11T10:52:35.484Z,8.40
2023-01-11T10:55:12.821Z,8.30
2023-01-11T10:57:39.471Z,8.40
2023-01-11T11:00:44.489Z,8.40
2023-01-11T11:03:19.191Z,8.40
2023-01-11T11:06:02.872Z,8.40
2023-01-11T11:08:35.217Z,8.40
2023-01-11T11:11:12.162Z,8.40
2023-01-11T11:13:59.043Z,8.30
2023-01-11T11:16:28.707Z,8.40
2023-01-11T11:18:56.047Z,8.50
2023-01-11T11:21:23.839Z,8.60
2023-01-11T11:23:54.557Z,8.70
2023-01-11T11:26:21.936Z,8.70
2023-01-11T11:29:02.278Z,8.80
2023-01-11T11:31:29.914Z,8.80
2023-01-11T11:33:56.663Z,8.80
2023-01-11T11:36:24.511Z,8.80
2023-01-11T11:39:10.671Z,8.80
2023-01-11T11:41:50.508Z,8.80
2023-01-11T11:44:21.670Z,8.70
2023-01-11T11:47:01.390Z,8.80
2023-01-11T11:49:29.536Z,8.80
2023-01-11T11:51:56.793Z,8.80
2023-01-11T11:54:26.704Z,8.80
2023-01-11T11:56:54.001Z,8.90
2023-01-11T11:59:21.922Z,8.80
2023-01-11T12:01:54.952Z,8.90
2023-01-11T12:04:47.087Z,8.90
2023-01-11T12:07:16.002Z,8.90
2023-01-11T12:09:44.990Z,8.90
2023-01-11T12:12:15.876Z,8.90
2023-01-11T12:14:42.926Z,8.90
2023-01-11T12:17:22.401Z,9.30
2023-01-11T12:19:48.981Z,8.90
2023-01-11T12:22:23.129Z,9.00
2023-01-11T12:25:01.992Z,9.00
2023-01-11T12:27:47.604Z,10.30
2023-01-11T12:30:14.192Z,8.90
2023-01-11T12:32:53.054Z,8.90
2023-01-11T12:35:31.575Z,8.90
2023-01-11T12:37:58.863Z,8.80
2023-01-11T12:40:34.670Z,8.80
2023-01-11T12:43:12.221Z,8.80
2023-01-11T12:45:57.271Z,8.80
2023-01-11T12:48:30.146Z,8.70
2023-01-11T12:51:15.342Z,8.70
2023-01-11T12:53:44.906Z,8.70
2023-01-11T12:56:35.926Z,8.70
2023-01-11T12:59:06.101Z,8.70
2023-01-11T13:01:44.693Z,8.70
2023-01-11T13:04:39.775Z,8.60
2023-01-11T13:07:41.775Z,8.70
2023-01-11T13:10:26.998Z,8.70
2023-01-11T13:13:01.013Z,8.70
2023-01-11T13:15:46.513Z,8.70
2023-01-11T13:18:39.575Z,8.70
2023-01-11T13:21:12.514Z,8.80
2023-01-11T13:23:42.270Z,8.80
2023-01-11T13:26:17.861Z,8.80
2023-01-11T13:28:46.378Z,8.80
2023-01-11T13:31:13.653Z,8.90
2023-01-11T13:33:43.835Z,10.70
2023-01-11T13:36:22.769Z,8.90
2023-01-11T13:39:00.472Z,8.90
2023-01-11T13:41:32.871Z,8.90
2023-01-11T13:44:06.283Z,8.80
2023-01-11T13:46:51.173Z,8.80
2023-01-11T13:49:28.024Z,8.90
2023-01-11T13:52:00.085Z,8.80
2023-01-11T13:54:33.675Z,8.70
2023-01-11T13:57:03.170Z,8.80
2023-01-11T13:59:32.535Z,8.80
2023-01-11T14:02:03.188Z,8.70
2023-01-11T14:04:32.724Z,8.80
2023-01-11T14:07:18.324Z,8.80
2023-01-11T14:09:51.131Z,8.80
2023-01-11T14:12:33.533Z,8.80
2023-01-11T14:15:10.975Z,8.70
2023-01-11T14:17:40.790Z,8.70
2023-01-11T14:20:13.413Z,8.70
2023-01-11T14:22:48.512Z,8.60
2023-01-11T14:25:19.294Z,8.70
2023-01-11T14:27:45.989Z,8.70
2023-01-11T14:30:27.967Z,8.70
2023-01-11T14:33:03.803Z,8.60
2023-01-11T14:35:30.386Z,8.60
2023-01-11T14:38:06.417Z,9.70
2023-01-11T14:40:36.187Z,8.50
2023-01-11T14:43:21.681Z,8.50
2023-01-11T14:46:10.678Z,8.40
2023-01-11T14:48:48.303Z,8.40
2023-01-11T14:51:14.847Z,8.30
2023-01-11T14:53:50.049Z,8.30
2023-01-11T14:56:36.499Z,8.40
2023-01-11T14:59:04.777Z,8.30
2023-01-11T15:01:51.352Z,9.80
2023-01-11T15:04:22.545Z,8.20
2023-01-11T15:06:54.064Z,8.10
2023-01-11T15:09:39.385Z,8.10
2023-01-11T15:12:13.176Z,8.10
2023-01-11T15:14:45.400Z,8.10
2023-01-11T15:17:32.795Z,8.60
2023-01-11T15:20:05.542Z,7.90
2023-01-11T15:22:33.039Z,7.90
2023-01-11T15:25:01.725Z,7.80
2023-01-11T15:27:33.563Z,7.80
2023-01-11T15:30:00.655Z,7.70
2023-01-11T15:32:29.647Z,7.70
2023-01-11T15:35:15.120Z,7.70
2023-01-11T15:37:41.762Z,7.60
2023-01-11T15:40:16.130Z,7.60
2023-01-11T15:42:56.779Z,7.60
2023-01-11T15:45:23.502Z,7.50
2023-01-11T15:47:53.219Z,7.50
2023-01-11T15:50:49.371Z,7.50
2023-01-11T15:53:28.390Z,7.40
2023-01-11T15:56:07.204Z,7.40
2023-01-11T15:58:52.518Z,7.40
2023-01-11T16:01:23.438Z,7.50
2023-01-11T16:04:05.156Z,7.40
2023-01-11T16:06:37.980Z,7.40
2023-01-11T16:09:07.720Z,7.40
2023-01-11T16:11:53.237Z,7.30
2023-01-11T16:14:39.840Z,7.30
2023-01-11T16:17:13.610Z,7.20
2023-01-11T16:19:43.029Z,7.20
2023-01-11T16:22:19.547Z,8.90
2023-01-11T16:24:47.660Z,7.10
2023-01-11T16:27:19.532Z,7.10
2023-01-11T16:29:48.934Z,7.00
2023-01-11T16:32:32.744Z,7.00
2023-01-11T16:35:00.301Z,5.90
2023-01-11T16:37:29.701Z,6.90
2023-01-11T16:40:08.665Z,6.80
2023-01-11T16:42:39.192Z,6.80
2023-01-11T16:45:07.195Z,6.80
2023-01-11T16:47:33.854Z,6.70
2023-01-11T16:50:12.068Z,6.70
2023-01-11T16:53:08.051Z,6.60
2023-01-11T16:55:40.067Z,6.60
2023-01-11T16:58:28.906Z,6.50
2023-01-11T17:01:00.369Z,6.50
2023-01-11T17:03:28.590Z,6.50
2023-01-11T17:06:00.498Z,6.50
2023-01-11T17:08:28.944Z,6.50
2023-01-11T17:10:57.418Z,6.40
2023-01-11T17:13:53.601Z,6.40
2023-01-11T17:16:25.112Z,6.40
2023-01-11T17:18:51.884Z,6.40
2023-01-11T17:21:19.990Z,6.40
2023-01-11T17:23:47.717Z,6.40
2023-01-11T17:26:16.183Z,6.40
2023-01-11T17:28:46.743Z,6.30
2023-01-11T17:31:21.318Z,6.30
2023-01-11T17:33:48.848Z,6.30
2023-01-11T17:36:16.325Z,6.30
2023-01-11T17:38:44.054Z,6.30
2023-01-11T17:41:31.073Z,6.40
2023-01-11T17:44:16.195Z,6.40
2023-01-11T17:46:42.977Z,9.40
2023-01-11T17:49:19.249Z,6.40
2023-01-11T17:51:45.902Z,6.40
2023-01-11T17:54:19.426Z,6.40
2023-01-11T17:56:50.688Z,6.40
2023-01-11T17:59:21.598Z,6.40
2023-01-11T18:01:49.286Z,6.40
2023-01-11T18:04:19.066Z,6.40
2023-01-11T18:06:48.281Z,6.40
2023-01-11T18:09:26.581Z,6.90
2023-01-11T18:11:53.414Z,6.40
2023-01-11T18:14:30.062Z,6.40
2023-01-11T18:17:04.695Z,6.30
2023-01-11T18:19:32.040Z,6.20
2023-01-11T18:21:58.679Z,6.30
2023-01-11T18:24:28.180Z,6.20
2023-01-11T18:27:15.387Z,6.20
2023-01-11T18:29:45.060Z,6.10
2023-01-11T18:32:12.692Z,6.10
2023-01-11T18:34:39.902Z,6.10
2023-01-11T18:37:06.711Z,6.10
2023-01-11T18:39:33.964Z,7.20
2023-01-11T18:42:07.234Z,6.10
2023-01-11T18:44:35.219Z,8.70
2023-01-11T18:47:02.860Z,6.10
2023-01-11T18:49:29.483Z,6.10
2023-01-11T18:51:56.141Z,6.00
2023-01-11T18:54:22.810Z,5.90
2023-01-11T18:56:49.445Z,6.00
2023-01-11T18:59:16.009Z,8.60
2023-01-11T19:01:56.582Z,5.90
2023-01-11T19:04:27.994Z,5.80
2023-01-11T19:06:54.760Z,5.80
2023-01-11T19:09:21.355Z,5.70
2023-01-11T19:11:48.003Z,8.30
2023-01-11T19:14:14.654Z,5.50
2023-01-11T19:16:41.317Z,5.50
2023-01-11T19:19:07.940Z,5.40
2023-01-11T19:21:34.838Z,5.90
2023-01-11T19:24:01.730Z,5.20
2023-01-11T19:26:28.555Z,5.20
2023-01-11T19:28:55.114Z,5.10
2023-01-11T19:31:21.963Z,5.10
2023-01-11T19:33:48.615Z,6.10
2023-01-11T19:36:15.318Z,4.90
2023-01-11T19:38:41.923Z,4.80
2023-01-11T19:41:09.456Z,4.80
2023-01-11T19:43:36.433Z,4.70
2023-01-11T19:46:03.957Z,4.70
2023-01-11T19:48:32.777Z,5.80
2023-01-11T19:51:03.465Z,4.60
2023-01-11T19:53:30.663Z,4.60
2023-01-11T19:56:23.671Z,4.60
2023-01-11T19:58:50.315Z,4.60
2023-01-11T20:01:17.078Z,4.50
2023-01-11T20:03:45.073Z,4.60
2023-01-11T20:06:11.734Z,4.60
2023-01-11T20:08:40.627Z,4.60
2023-01-11T20:11:08.450Z,4.60
2023-01-11T20:13:35.104Z,4.60
2023-01-11T20:16:08.962Z,4.60
2023-01-11T20:18:35.656Z,4.60
2023-01-11T20:21:02.843Z,4.60
2023-01-11T20:23:29.803Z,7.60
2023-01-11T20:26:00.613Z,4.60
2023-01-11T20:28:27.526Z,4.50
2023-01-11T20:30:54.542Z,4.60
2023-01-11T20:33:21.215Z,4.60
2023-01-11T20:35:48.734Z,4.60
2023-01-11T20:38:15.444Z,4.70
2023-01-11T20:40:42.009Z,4.60
2023-01-11T20:43:10.799Z,4.60
2023-01-11T20:45:39.470Z,4.60
2023-01-11T20:48:06.875Z,4.60
2023-01-11T20:50:34.164Z,4.60
2023-01-11T20:53:00.919Z,5.90
2023-01-11T20:55:27.897Z,4.60
2023-01-11T20:57:54.677Z,4.50
2023-01-11T21:00:21.355Z,4.50
2023-01-11T21:02:48.707Z,4.50
2023-01-11T21:05:15.370Z,4.50
2023-01-11T21:07:42.021Z,5.40
2023-01-11T21:10:09.196Z,4.60
2023-01-11T21:12:35.853Z,4.60
2023-01-11T21:15:02.513Z,4.60
2023-01-11T21:17:29.182Z,4.60
2023-01-11T21:19:55.726Z,4.60
2023-01-11T21:22:22.302Z,4.50
2023-01-11T21:24:48.904Z,4.60
2023-01-11T21:27:15.577Z,4.60
2023-01-11T21:29:42.282Z,4.60
2023-01-11T21:32:08.938Z,5.70
2023-01-11T21:34:35.506Z,4.60
2023-01-11T21:37:02.124Z,4.60
2023-01-11T21:39:28.668Z,4.60
2023-01-11T21:41:55.284Z,4.60
2023-01-11T21:44:22.756Z,4.70
2023-01-11T21:46:49.811Z,4.70
2023-01-11T21:49:16.712Z,4.80
2023-01-11T21:51:43.383Z,4.80
2023-01-11T21:54:11.125Z,4.90
2023-01-11T21:56:38.185Z,4.90
2023-01-11T21:59:04.844Z,4.90
2023-01-11T22:01:31.466Z,5.00
2023-01-11T22:03:58.307Z,5.00
2023-01-11T22:06:26.779Z,5.00
2023-01-11T22:08:53.474Z,5.00
2023-01-11T22:11:20.083Z,5.00
2023-01-11T22:13:46.779Z,5.10
2023-01-11T22:16:14.833Z,5.10
2023-01-11T22:18:41.996Z,5.10
2023-01-11T22:21:09.558Z,5.20
2023-01-11T22:23:36.365Z,5.20
2023-01-11T22:26:23.190Z,5.20
2023-01-11T22:29:10.509Z,5.10
2023-01-11T22:31:38.087Z,5.20
2023-01-11T22:34:05.006Z,5.30
2023-01-11T22:36:31.604Z,5.30
2023-01-11T22:38:58.195Z,5.40
2023-01-11T22:41:25.572Z,5.40
2023-01-11T22:43:53.118Z,5.40
2023-01-11T22:46:21.246Z,5.40
2023-01-11T22:48:48.736Z,5.40
2023-01-11T22:51:16.476Z,5.40
2023-01-11T22:53:44.560Z,5.40
2023-01-11T22:56:11.938Z,5.40
2023-01-11T22:58:38.826Z,5.40
2023-01-11T23:01:31.831Z,5.30
2023-01-11T23:03:58.612Z,5.30
2023-01-11T23:06:32.700Z,5.40
2023-01-11T23:08:59.504Z,5.30
2023-01-11T23:11:46.125Z,5.40
2023-01-11T23:14:14.571Z,5.40
2023-01-11T23:16:41.679Z,5.40
2023-01-11T23:19:08.715Z,5.30
2023-01-11T23:21:35.726Z,5.30
2023-01-11T23:24:02.767Z,5.30
2023-01-11T23:26:29.480Z,5.20
2023-01-11T23:28:56.381Z,5.40
2023-01-11T23:31:23.925Z,5.10
2023-01-11T23:33:55.010Z,5.10
2023-01-11T23:36:23.102Z,5.00
2023-01-11T23:38:50.686Z,5.00
2023-01-11T23:41:36.955Z,5.00
2023-01-11T23:44:10.511Z,5.00
2023-01-11T23:46:56.358Z,4.90
2023-01-11T23:49:24.723Z,5.00
2023-01-11T23:51:51.644Z,4.90
2023-01-11T23:54:18.428Z,4.90
2023-01-11T23:56:45.166Z,4.90
2023-01-11T23:59:12.018Z,4.90
